Time;durP1;ratioP1;P1;durP2;ratioP2;P2;SDS_P1;SDS_P2;PMS_P1;PMS_P2;Temp;Humidity;BMP_temperature;BMP_pressure;BME280_temperature;BME280_humidity;BME280_pressure;Samples;Min_cycle;Max_cycle;Signal;HPM_P1;HPM_P2
2024/02/23 00:02:22;;;;;;;2.30;1.10;;;;;;;;;;5023877;28;20204;-56
2024/02/23 00:04:48;;;;;;;0.97;0.97;;;;;;;;;;5021628;28;20194;-57
2024/02/23 00:07:14;;;;;;;1.07;1.00;;;;;;;;;;5025031;28;20536;-57
2024/02/23 00:09:40;;;;;;;0.87;0.80;;;;;;;;;;5021714;28;20439;-57
2024/02/23 00:12:06;;;;;;;1.57;1.47;;;;;;;;;;5021242;28;20585;-59
2024/02/23 00:14:32;;;;;;;1.40;1.30;;;;;;;;;;5021665;28;20182;-61
2024/02/23 00:16:58;;;;;;;2.17;1.30;;;;;;;;;;5020250;28;20186;-57
2024/02/23 00:19:25;;;;;;;1.80;1.37;;;;;;;;;;5017882;28;20662;-58
2024/02/23 00:21:52;;;;;;;1.40;1.30;;;;;;;;;;5022899;28;20200;-58
2024/02/23 00:24:20;;;;;;;2.20;1.57;;;;;;;;;;5016133;28;20190;-57
2024/02/23 00:26:46;;;;;;;3.10;1.50;;;;;;;;;;5021846;28;20182;-60
2024/02/23 00:29:12;;;;;;;2.10;1.60;;;;;;;;;;5016415;28;20170;-60
2024/02/23 00:31:40;;;;;;;2.23;1.63;;;;;;;;;;5018285;28;20181;-60
2024/02/23 00:34:10;;;;;;;1.90;1.70;;;;;;;;;;5013195;28;20183;-60
2024/02/23 00:36:36;;;;;;;1.73;1.60;;;;;;;;;;5017837;28;20229;-60
2024/02/23 00:39:02;;;;;;;2.80;1.90;;;;;;;;;;5023876;28;20230;-60
2024/02/23 00:41:28;;;;;;;4.93;2.03;;;;;;;;;;5021996;28;20213;-60
2024/02/23 00:43:54;;;;;;;2.23;1.50;;;;;;;;;;5022382;28;20202;-60
2024/02/23 00:46:20;;;;;;;2.07;1.87;;;;;;;;;;5018318;28;20933;-60
2024/02/23 00:48:47;;;;;;;2.63;2.43;;;;;;;;;;5021476;28;20418;-60
2024/02/23 00:51:13;;;;;;;2.20;1.80;;;;;;;;;;5020783;28;20514;-60
2024/02/23 00:53:39;;;;;;;3.50;1.93;;;;;;;;;;5022755;28;20350;-60
2024/02/23 00:56:05;;;;;;;2.37;1.90;;;;;;;;;;5020481;28;20657;-60
2024/02/23 00:58:31;;;;;;;1.43;1.33;;;;;;;;;;5024476;28;20209;-60
2024/02/23 01:00:57;;;;;;;1.67;1.57;;;;;;;;;;5014618;28;20206;-60
2024/02/23 01:03:23;;;;;;;2.70;1.50;;;;;;;;;;5023068;28;20178;-60
2024/02/23 01:05:49;;;;;;;1.57;1.47;;;;;;;;;;5017517;28;20269;-60
2024/02/23 01:08:15;;;;;;;1.80;1.50;;;;;;;;;;5019282;28;20260;-60
2024/02/23 01:10:41;;;;;;;1.63;1.40;;;;;;;;;;5016835;28;20169;-60
2024/02/23 01:13:07;;;;;;;1.50;1.40;;;;;;;;;;5020101;28;20186;-60
2024/02/23 01:15:34;;;;;;;1.43;1.33;;;;;;;;;;5017889;28;20200;-60
2024/02/23 01:18:00;;;;;;;2.37;1.40;;;;;;;;;;5021390;28;20791;-60
2024/02/23 01:20:26;;;;;;;1.57;1.47;;;;;;;;;;5021522;28;20534;-60
2024/02/23 01:22:52;;;;;;;2.40;1.37;;;;;;;;;;5018624;28;20276;-60
2024/02/23 01:25:18;;;;;;;1.57;1.40;;;;;;;;;;5014726;28;20182;-60
2024/02/23 01:27:44;;;;;;;1.60;1.40;;;;;;;;;;5015646;28;20638;-60
2024/02/23 01:30:10;;;;;;;2.40;1.40;;;;;;;;;;5021723;28;20182;-60
2024/02/23 01:32:38;;;;;;;2.47;1.40;;;;;;;;;;5018620;28;20631;-60
2024/02/23 01:35:04;;;;;;;1.73;1.57;;;;;;;;;;5014557;28;20193;-60
2024/02/23 01:37:30;;;;;;;2.00;1.33;;;;;;;;;;5018250;28;20221;-62
2024/02/23 01:39:57;;;;;;;1.40;1.30;;;;;;;;;;5019287;28;20197;-63
2024/02/23 01:42:23;;;;;;;1.60;1.40;;;;;;;;;;5011654;28;20225;-63
2024/02/23 01:44:49;;;;;;;1.40;1.30;;;;;;;;;;5020083;28;20247;-61
2024/02/23 01:47:16;;;;;;;2.00;1.00;;;;;;;;;;5016554;28;20602;-62
2024/02/23 01:49:42;;;;;;;1.60;1.20;;;;;;;;;;5017048;28;20177;-63
2024/02/23 01:52:08;;;;;;;2.10;1.20;;;;;;;;;;5016253;28;20278;-62
2024/02/23 01:54:34;;;;;;;1.00;1.00;;;;;;;;;;5019366;28;20650;-63
2024/02/23 01:57:01;;;;;;;2.07;1.10;;;;;;;;;;5018347;28;20571;-62
2024/02/23 01:59:27;;;;;;;2.57;1.20;;;;;;;;;;5014419;28;20665;-63
2024/02/23 02:01:53;;;;;;;1.10;1.00;;;;;;;;;;5011744;28;20209;-63
2024/02/23 02:04:19;;;;;;;1.00;0.97;;;;;;;;;;5012394;28;20237;-63
2024/02/23 02:06:46;;;;;;;1.97;1.20;;;;;;;;;;5019285;28;20186;-63
2024/02/23 02:09:12;;;;;;;1.90;1.10;;;;;;;;;;5021537;28;20260;-63
2024/02/23 02:11:48;;;;;;;3.20;1.97;;;;;;;;;;5015482;28;20262;-63
2024/02/23 02:14:14;;;;;;;3.13;1.30;;;;;;;;;;5014547;28;20173;-63
2024/02/23 02:16:40;;;;;;;3.97;1.43;;;;;;;;;;5017251;28;20669;-63
2024/02/23 02:19:06;;;;;;;3.50;1.10;;;;;;;;;;4977719;28;1066183;-63
2024/02/23 02:21:33;;;;;;;2.90;1.07;;;;;;;;;;5017278;28;20232;-63
2024/02/23 02:24:08;;;;;;;2.00;1.10;;;;;;;;;;5023970;28;20710;-62
2024/02/23 02:26:35;;;;;;;3.97;1.30;;;;;;;;;;5016541;28;20178;-62
2024/02/23 02:29:02;;;;;;;1.87;1.10;;;;;;;;;;5017935;28;20764;-63
2024/02/23 02:31:28;;;;;;;1.63;1.00;;;;;;;;;;5019533;28;20677;-62
2024/02/23 02:33:54;;;;;;;3.33;1.37;;;;;;;;;;5019493;28;20240;-63
2024/02/23 02:36:20;;;;;;;1.47;1.13;;;;;;;;;;5019303;28;20186;-61
2024/02/23 02:38:46;;;;;;;1.20;1.00;;;;;;;;;;5016215;28;20197;-62
2024/02/23 02:41:12;;;;;;;2.93;1.13;;;;;;;;;;5013296;28;20553;-62
2024/02/23 02:43:38;;;;;;;1.50;1.00;;;;;;;;;;5012056;28;20286;-62
2024/02/23 02:46:04;;;;;;;2.50;1.73;;;;;;;;;;5014826;28;20273;-62
2024/02/23 02:48:30;;;;;;;2.33;1.40;;;;;;;;;;5020202;28;20174;-63
2024/02/23 02:50:56;;;;;;;2.00;1.20;;;;;;;;;;5020059;28;20602;-63
2024/02/23 02:53:22;;;;;;;2.83;1.23;;;;;;;;;;5015567;28;20664;-63
2024/02/23 02:55:48;;;;;;;3.07;1.10;;;;;;;;;;5014609;28;20198;-63
2024/02/23 02:58:14;;;;;;;2.20;1.10;;;;;;;;;;5021372;28;20210;-63
2024/02/23 03:00:40;;;;;;;2.43;1.20;;;;;;;;;;5015032;28;20316;-63
2024/02/23 03:03:07;;;;;;;2.37;1.13;;;;;;;;;;5024025;28;20220;-63
2024/02/23 03:05:33;;;;;;;3.07;1.00;;;;;;;;;;5022529;28;20486;-64
2024/02/23 03:07:59;;;;;;;4.50;1.13;;;;;;;;;;5018463;28;20590;-63
2024/02/23 03:10:25;;;;;;;3.03;1.10;;;;;;;;;;5014330;28;20724;-63
2024/02/23 03:12:51;;;;;;;1.43;1.00;;;;;;;;;;5018765;28;20301;-64
2024/02/23 03:15:17;;;;;;;4.33;1.30;;;;;;;;;;5019617;28;20528;-63
2024/02/23 03:17:43;;;;;;;1.27;0.90;;;;;;;;;;5018694;28;20186;-63
2024/02/23 03:20:10;;;;;;;2.33;0.93;;;;;;;;;;5014251;28;20221;-63
2024/02/23 03:22:37;;;;;;;2.30;1.20;;;;;;;;;;5020157;28;20209;-63
2024/02/23 03:25:08;;;;;;;2.53;1.13;;;;;;;;;;5024968;28;20182;-63
2024/02/23 03:27:34;;;;;;;1.53;1.07;;;;;;;;;;5023977;28;20175;-63
2024/02/23 03:30:00;;;;;;;1.67;1.10;;;;;;;;;;5023172;28;20185;-63
2024/02/23 03:32:26;;;;;;;3.57;0.87;;;;;;;;;;5019300;28;20178;-64
2024/02/23 03:34:52;;;;;;;1.53;0.97;;;;;;;;;;5016107;28;20210;-63
2024/02/23 03:37:18;;;;;;;1.37;0.70;;;;;;;;;;5022794;28;20399;-63
2024/02/23 03:39:44;;;;;;;2.93;1.23;;;;;;;;;;5012630;28;20193;-64
2024/02/23 03:42:10;;;;;;;1.93;0.97;;;;;;;;;;5026987;28;20216;-63
2024/02/23 03:44:36;;;;;;;1.27;0.90;;;;;;;;;;5019642;28;20186;-63
2024/02/23 03:47:02;;;;;;;1.70;1.00;;;;;;;;;;5018774;28;20255;-61
2024/02/23 03:49:28;;;;;;;0.90;0.90;;;;;;;;;;5021038;28;20630;-63
2024/02/23 03:51:54;;;;;;;2.77;1.07;;;;;;;;;;5021113;28;20193;-63
2024/02/23 03:54:20;;;;;;;0.90;0.90;;;;;;;;;;5022438;28;20597;-61
2024/02/23 03:56:46;;;;;;;3.30;0.87;;;;;;;;;;5020060;28;20201;-63
2024/02/23 03:59:12;;;;;;;2.57;1.20;;;;;;;;;;5020725;28;20216;-63
2024/02/23 04:01:39;;;;;;;2.43;1.30;;;;;;;;;;5016826;28;20214;-63
2024/02/23 04:04:05;;;;;;;3.13;1.00;;;;;;;;;;5024370;28;20254;-64
2024/02/23 04:06:32;;;;;;;2.87;1.07;;;;;;;;;;5019229;28;20183;-63
2024/02/23 04:08:58;;;;;;;1.43;1.00;;;;;;;;;;5017964;28;20209;-63
2024/02/23 04:11:24;;;;;;;2.33;1.10;;;;;;;;;;5018696;28;20193;-63
2024/02/23 04:13:50;;;;;;;1.23;0.93;;;;;;;;;;5015584;28;20175;-64
2024/02/23 04:16:16;;;;;;;1.57;1.13;;;;;;;;;;5016479;28;20183;-61
2024/02/23 04:18:42;;;;;;;3.47;1.90;;;;;;;;;;5018138;28;20229;-63
2024/02/23 04:21:08;;;;;;;1.80;0.90;;;;;;;;;;5016852;28;20187;-64
2024/02/23 04:23:34;;;;;;;1.60;1.00;;;;;;;;;;5020533;28;20193;-64
2024/02/23 04:26:00;;;;;;;1.47;0.87;;;;;;;;;;5016767;28;20248;-64
2024/02/23 04:28:30;;;;;;;1.63;1.23;;;;;;;;;;5020080;28;20519;-63
2024/02/23 04:30:56;;;;;;;1.43;1.00;;;;;;;;;;5023445;28;20281;-63
2024/02/23 04:33:22;;;;;;;2.70;0.90;;;;;;;;;;5018247;28;20296;-64
2024/02/23 04:35:48;;;;;;;2.97;1.47;;;;;;;;;;5024244;28;20638;-64
2024/02/23 04:38:14;;;;;;;2.20;1.00;;;;;;;;;;5021189;28;20178;-64
2024/02/23 04:40:40;;;;;;;1.60;1.00;;;;;;;;;;5023182;28;20244;-63
2024/02/23 04:43:06;;;;;;;3.17;1.17;;;;;;;;;;5019117;28;20670;-64
2024/02/23 04:45:32;;;;;;;2.77;1.07;;;;;;;;;;5019672;28;20657;-63
2024/02/23 04:47:58;;;;;;;9.60;1.20;;;;;;;;;;5025640;28;20611;-64
2024/02/23 04:50:24;;;;;;;2.50;1.00;;;;;;;;;;5024168;28;20201;-63
2024/02/23 04:52:50;;;;;;;3.97;1.30;;;;;;;;;;5014560;28;21888;-63
2024/02/23 04:55:16;;;;;;;2.47;0.90;;;;;;;;;;5013945;28;20598;-63
2024/02/23 04:57:42;;;;;;;2.00;1.03;;;;;;;;;;5024144;28;20285;-63
2024/02/23 05:00:09;;;;;;;3.77;1.27;;;;;;;;;;5021583;28;20190;-63
2024/02/23 05:02:35;;;;;;;3.53;1.23;;;;;;;;;;5020756;28;20209;-63
2024/02/23 05:05:04;;;;;;;1.67;1.10;;;;;;;;;;5018708;28;20269;-63
2024/02/23 05:07:33;;;;;;;2.70;1.07;;;;;;;;;;5020001;28;20194;-63
2024/02/23 05:09:59;;;;;;;6.23;2.40;;;;;;;;;;5015216;28;20201;-63
2024/02/23 05:12:25;;;;;;;3.10;1.80;;;;;;;;;;5012915;28;20252;-63
2024/02/23 05:14:52;;;;;;;4.00;1.10;;;;;;;;;;5017854;28;20317;-63
2024/02/23 05:17:18;;;;;;;2.73;1.07;;;;;;;;;;5021756;28;20197;-63
2024/02/23 05:19:46;;;;;;;2.57;1.00;;;;;;;;;;5023006;28;20753;-63
2024/02/23 05:22:12;;;;;;;4.80;1.40;;;;;;;;;;5014617;28;20344;-63
2024/02/23 05:24:38;;;;;;;1.73;1.20;;;;;;;;;;5018932;28;20312;-63
2024/02/23 05:27:04;;;;;;;1.20;1.10;;;;;;;;;;5022910;28;20192;-63
2024/02/23 05:29:30;;;;;;;4.83;1.40;;;;;;;;;;5021833;28;20221;-65
2024/02/23 05:31:56;;;;;;;3.97;1.10;;;;;;;;;;5017891;28;20588;-63
2024/02/23 05:34:22;;;;;;;1.40;1.30;;;;;;;;;;5024622;28;20213;-64
2024/02/23 05:36:50;;;;;;;2.37;0.90;;;;;;;;;;5019698;28;20668;-63
2024/02/23 05:39:17;;;;;;;2.00;1.30;;;;;;;;;;5020638;28;20186;-64
2024/02/23 05:41:43;;;;;;;2.97;1.23;;;;;;;;;;5014861;28;20236;-64
2024/02/23 05:44:10;;;;;;;3.03;1.20;;;;;;;;;;5017951;28;20343;-63
2024/02/23 05:46:36;;;;;;;4.10;1.30;;;;;;;;;;5019868;28;20173;-63
2024/02/23 05:49:06;;;;;;;2.20;1.10;;;;;;;;;;5021663;28;20192;-64
2024/02/23 05:51:32;;;;;;;1.97;1.00;;;;;;;;;;5020840;28;20190;-62
2024/02/23 05:53:58;;;;;;;1.60;1.20;;;;;;;;;;5019045;28;20186;-64
2024/02/23 05:56:24;;;;;;;2.50;1.47;;;;;;;;;;5019162;28;20638;-63
2024/02/23 05:58:51;;;;;;;3.83;1.30;;;;;;;;;;5021254;28;20218;-63
2024/02/23 06:01:18;;;;;;;4.10;1.00;;;;;;;;;;5018402;28;20206;-65
2024/02/23 06:03:44;;;;;;;5.77;1.10;;;;;;;;;;5021295;28;20182;-64
2024/02/23 06:06:10;;;;;;;4.07;1.33;;;;;;;;;;5021350;28;20587;-64
2024/02/23 06:08:37;;;;;;;2.53;1.50;;;;;;;;;;5020733;28;20718;-64
2024/02/23 06:11:03;;;;;;;7.30;1.53;;;;;;;;;;5011466;28;20615;-64
2024/02/23 06:13:33;;;;;;;2.10;0.93;;;;;;;;;;5017331;28;20510;-63
2024/02/23 06:16:00;;;;;;;4.33;1.00;;;;;;;;;;5019118;28;20178;-64
2024/02/23 06:18:26;;;;;;;6.70;1.53;;;;;;;;;;5013033;28;20256;-64
2024/02/23 06:20:52;;;;;;;1.67;1.27;;;;;;;;;;5015273;28;20190;-65
2024/02/23 06:23:18;;;;;;;3.53;1.10;;;;;;;;;;5015187;28;21776;-64
2024/02/23 06:25:44;;;;;;;3.70;1.40;;;;;;;;;;5018922;28;20197;-64
2024/02/23 06:28:10;;;;;;;3.27;1.20;;;;;;;;;;5020127;28;21774;-65
2024/02/23 06:30:37;;;;;;;2.23;1.10;;;;;;;;;;5019742;28;20499;-64
2024/02/23 06:33:04;;;;;;;2.30;1.40;;;;;;;;;;5017880;28;20699;-64
2024/02/23 06:35:30;;;;;;;2.30;1.00;;;;;;;;;;5017445;28;20186;-63
2024/02/23 06:37:56;;;;;;;2.67;1.10;;;;;;;;;;5009932;28;20196;-65
2024/02/23 06:40:22;;;;;;;1.67;1.10;;;;;;;;;;5013054;28;20186;-65
2024/02/23 06:42:50;;;;;;;3.97;1.60;;;;;;;;;;5022227;28;20561;-65
2024/02/23 06:45:16;;;;;;;3.37;1.10;;;;;;;;;;5021769;28;20191;-64
2024/02/23 06:47:42;;;;;;;3.60;1.27;;;;;;;;;;5017784;28;20260;-65
2024/02/23 06:50:08;;;;;;;2.67;1.20;;;;;;;;;;5018921;28;20190;-64
2024/02/23 06:52:34;;;;;;;3.97;1.17;;;;;;;;;;5018834;28;20213;-64
2024/02/23 06:55:00;;;;;;;1.50;1.00;;;;;;;;;;5012743;28;20182;-64
2024/02/23 06:57:26;;;;;;;5.23;2.23;;;;;;;;;;5018739;28;20201;-63
2024/02/23 06:59:53;;;;;;;3.57;2.00;;;;;;;;;;5020330;28;20244;-64
2024/02/23 07:02:19;;;;;;;3.57;0.93;;;;;;;;;;5021644;28;20646;-64
2024/02/23 07:04:45;;;;;;;2.57;1.30;;;;;;;;;;5015780;28;20213;-64
2024/02/23 07:07:11;;;;;;;1.40;1.00;;;;;;;;;;5017720;28;20270;-63
2024/02/23 07:09:37;;;;;;;2.17;1.10;;;;;;;;;;5012795;28;20189;-64
2024/02/23 07:12:04;;;;;;;2.17;1.10;;;;;;;;;;5011173;28;20257;-64
2024/02/23 07:14:30;;;;;;;1.10;0.83;;;;;;;;;;5011984;28;20182;-63
2024/02/23 07:16:56;;;;;;;3.77;1.60;;;;;;;;;;5014589;28;20202;-64
2024/02/23 07:19:22;;;;;;;2.00;1.10;;;;;;;;;;5010116;28;20694;-63
2024/02/23 07:21:48;;;;;;;2.87;1.43;;;;;;;;;;5012641;28;20198;-64
2024/02/23 07:24:14;;;;;;;4.40;1.50;;;;;;;;;;5029633;28;20190;-65
2024/02/23 07:26:40;;;;;;;1.80;0.90;;;;;;;;;;5012459;28;20223;-66
2024/02/23 07:29:08;;;;;;;1.97;1.00;;;;;;;;;;5016757;28;20325;-60
2024/02/23 07:31:34;;;;;;;3.13;1.60;;;;;;;;;;5020148;28;20217;-60
2024/02/23 07:33:59;;;;;;;2.33;1.13;;;;;;;;;;5017904;28;20218;-60
2024/02/23 07:36:26;;;;;;;3.67;1.43;;;;;;;;;;5016564;28;20186;-60
2024/02/23 07:38:52;;;;;;;1.10;0.90;;;;;;;;;;5021363;28;20265;-60
2024/02/23 07:41:18;;;;;;;3.10;1.17;;;;;;;;;;5009816;28;20216;-60
2024/02/23 07:43:44;;;;;;;4.03;1.67;;;;;;;;;;5017051;28;20653;-60
2024/02/23 07:46:10;;;;;;;2.63;1.20;;;;;;;;;;5014169;28;20206;-60
2024/02/23 07:48:37;;;;;;;8.87;1.77;;;;;;;;;;5016885;28;20244;-60
2024/02/23 07:51:03;;;;;;;5.07;1.27;;;;;;;;;;5019568;28;20188;-60
2024/02/23 07:53:30;;;;;;;2.70;1.83;;;;;;;;;;5013546;28;20216;-60
2024/02/23 07:55:59;;;;;;;2.57;1.30;;;;;;;;;;5018498;28;20288;-60
2024/02/23 07:58:26;;;;;;;2.53;1.10;;;;;;;;;;5011453;28;20241;-60
2024/02/23 08:00:52;;;;;;;2.23;1.43;;;;;;;;;;5026689;28;20200;-60
2024/02/23 08:03:19;;;;;;;3.00;1.10;;;;;;;;;;5013588;28;20209;-60
2024/02/23 08:05:45;;;;;;;2.90;1.23;;;;;;;;;;5022736;28;20587;-60
2024/02/23 08:08:11;;;;;;;3.80;1.50;;;;;;;;;;5021653;28;20186;-60
2024/02/23 08:10:37;;;;;;;5.70;1.67;;;;;;;;;;5013834;28;20190;-60
2024/02/23 08:13:03;;;;;;;2.93;1.10;;;;;;;;;;5018912;28;20185;-60
2024/02/23 08:15:29;;;;;;;3.03;1.60;;;;;;;;;;5021630;28;20285;-60
2024/02/23 08:17:55;;;;;;;2.33;1.00;;;;;;;;;;5015020;28;20268;-60
2024/02/23 08:20:21;;;;;;;1.73;1.13;;;;;;;;;;5015095;28;20591;-60
2024/02/23 08:22:47;;;;;;;3.93;1.20;;;;;;;;;;5020091;28;20675;-60
2024/02/23 08:25:13;;;;;;;3.53;1.60;;;;;;;;;;5014512;28;20596;-60
2024/02/23 08:27:41;;;;;;;3.67;1.90;;;;;;;;;;5022128;28;20590;-60
2024/02/23 08:30:07;;;;;;;3.43;0.97;;;;;;;;;;5018085;28;20181;-60
2024/02/23 08:32:33;;;;;;;3.50;1.33;;;;;;;;;;5013115;28;20665;-60
2024/02/23 08:34:59;;;;;;;2.30;1.30;;;;;;;;;;5015165;28;20301;-60
2024/02/23 08:37:29;;;;;;;3.10;1.30;;;;;;;;;;5013736;28;20196;-60
2024/02/23 08:39:55;;;;;;;2.80;1.20;;;;;;;;;;5031899;28;20186;-60
2024/02/23 08:42:21;;;;;;;3.00;1.13;;;;;;;;;;5023943;28;20214;-60
2024/02/23 08:44:47;;;;;;;3.37;1.40;;;;;;;;;;5014345;28;20174;-60
2024/02/23 08:47:13;;;;;;;6.20;1.33;;;;;;;;;;5022043;28;20193;-59
2024/02/23 08:49:39;;;;;;;4.17;1.00;;;;;;;;;;5019488;28;20239;-60
2024/02/23 08:52:05;;;;;;;2.90;1.00;;;;;;;;;;5024414;28;20189;-60
2024/02/23 08:54:31;;;;;;;2.50;1.03;;;;;;;;;;5019107;28;20328;-59
2024/02/23 08:56:57;;;;;;;3.00;1.70;;;;;;;;;;5017901;28;20192;-59
2024/02/23 08:59:23;;;;;;;3.20;1.33;;;;;;;;;;5019759;28;20670;-60
2024/02/23 09:01:50;;;;;;;3.30;1.17;;;;;;;;;;5013447;28;20316;-59
2024/02/23 09:04:16;;;;;;;2.67;1.20;;;;;;;;;;5011218;28;20627;-59
2024/02/23 09:06:42;;;;;;;3.00;1.60;;;;;;;;;;5018322;28;20281;-60
2024/02/23 09:09:08;;;;;;;2.77;1.33;;;;;;;;;;5017094;28;20300;-60
2024/02/23 09:11:34;;;;;;;1.50;1.20;;;;;;;;;;5016014;28;20190;-60
2024/02/23 09:14:00;;;;;;;2.77;1.23;;;;;;;;;;5016161;28;20186;-60
2024/02/23 09:16:26;;;;;;;2.23;1.23;;;;;;;;;;5016060;28;20265;-60
2024/02/23 09:18:52;;;;;;;3.80;1.47;;;;;;;;;;5011912;28;20236;-60
2024/02/23 09:21:18;;;;;;;3.87;1.40;;;;;;;;;;5017393;28;20276;-59
2024/02/23 09:23:44;;;;;;;5.80;1.27;;;;;;;;;;5018989;28;20204;-60
2024/02/23 09:26:11;;;;;;;3.87;1.40;;;;;;;;;;5014052;28;20195;-59
2024/02/23 09:28:37;;;;;;;2.10;1.37;;;;;;;;;;5021062;28;20517;-60
2024/02/23 09:31:04;;;;;;;2.57;1.20;;;;;;;;;;5018350;28;20239;-59
2024/02/23 09:33:30;;;;;;;1.93;0.90;;;;;;;;;;5018796;28;20194;-59
2024/02/23 09:35:57;;;;;;;2.17;1.40;;;;;;;;;;5013212;28;20500;-62
2024/02/23 09:38:26;;;;;;;5.10;1.43;;;;;;;;;;5015543;28;20510;-62
2024/02/23 09:40:52;;;;;;;1.30;0.87;;;;;;;;;;5019031;28;20311;-61
2024/02/23 09:43:20;;;;;;;2.67;1.10;;;;;;;;;;5022123;28;20294;-61
2024/02/23 09:45:47;;;;;;;1.37;0.90;;;;;;;;;;5016122;28;20593;-61
2024/02/23 09:48:15;;;;;;;2.57;1.20;;;;;;;;;;5021572;28;20186;-62
2024/02/23 09:50:42;;;;;;;2.63;1.20;;;;;;;;;;5014826;28;20596;-59
2024/02/23 09:53:10;;;;;;;2.13;1.10;;;;;;;;;;5020192;28;20266;-58
2024/02/23 09:55:36;;;;;;;2.03;1.00;;;;;;;;;;5016480;28;20315;-59
2024/02/23 09:58:03;;;;;;;3.63;1.50;;;;;;;;;;5022416;28;20261;-62
2024/02/23 10:00:30;;;;;;;4.87;1.53;;;;;;;;;;5017732;28;20543;-59
2024/02/23 10:02:56;;;;;;;1.73;1.13;;;;;;;;;;5015902;28;20210;-60
2024/02/23 10:05:29;;;;;;;3.00;1.20;;;;;;;;;;5017206;28;20247;-60
2024/02/23 10:07:57;;;;;;;2.10;0.97;;;;;;;;;;5022544;28;20186;-59
2024/02/23 10:10:26;;;;;;;2.93;1.30;;;;;;;;;;5021874;28;20242;-58
2024/02/23 10:12:52;;;;;;;3.57;1.13;;;;;;;;;;5019504;28;20688;-59
2024/02/23 10:15:18;;;;;;;2.10;0.90;;;;;;;;;;5016455;28;20201;-59
2024/02/23 10:17:44;;;;;;;6.07;1.37;;;;;;;;;;5015195;28;20186;-60
2024/02/23 10:20:11;;;;;;;2.00;1.23;;;;;;;;;;5019994;28;20717;-59
2024/02/23 10:22:37;;;;;;;4.77;1.37;;;;;;;;;;5013713;28;20253;-56
2024/02/23 10:25:03;;;;;;;3.03;1.27;;;;;;;;;;5021017;28;20186;-58
2024/02/23 10:27:29;;;;;;;2.60;1.00;;;;;;;;;;5014700;28;20232;-58
2024/02/23 10:29:55;;;;;;;3.90;1.63;;;;;;;;;;5021413;28;20633;-56
2024/02/23 10:32:21;;;;;;;2.63;1.20;;;;;;;;;;5018687;28;20202;-56
2024/02/23 10:34:51;;;;;;;3.10;1.13;;;;;;;;;;5016266;28;20194;-56
2024/02/23 10:37:18;;;;;;;4.63;1.40;;;;;;;;;;5025541;28;20186;-57
2024/02/23 10:39:44;;;;;;;1.73;0.97;;;;;;;;;;5019312;28;20323;-57
2024/02/23 10:42:12;;;;;;;3.83;1.60;;;;;;;;;;5022632;28;20237;-57
2024/02/23 10:44:38;;;;;;;1.57;1.00;;;;;;;;;;5016046;28;20264;-56
2024/02/23 10:47:05;;;;;;;3.27;1.07;;;;;;;;;;5022051;28;20186;-57
2024/02/23 10:49:31;;;;;;;1.63;1.07;;;;;;;;;;5025503;28;20178;-60
2024/02/23 10:51:58;;;;;;;3.00;1.30;;;;;;;;;;5022666;28;20654;-57
2024/02/23 10:54:24;;;;;;;2.30;1.17;;;;;;;;;;5017573;28;20707;-59
2024/02/23 10:56:51;;;;;;;2.40;0.93;;;;;;;;;;5022240;28;20209;-57
2024/02/23 10:59:22;;;;;;;4.90;1.57;;;;;;;;;;5022875;28;20186;-58
2024/02/23 11:01:51;;;;;;;1.77;1.00;;;;;;;;;;5020565;28;20244;-63
2024/02/23 11:04:18;;;;;;;3.17;1.70;;;;;;;;;;5025351;28;20189;-62
2024/02/23 11:06:49;;;;;;;1.83;1.00;;;;;;;;;;5015932;28;20201;-62
2024/02/23 11:09:15;;;;;;;2.47;1.00;;;;;;;;;;5022849;28;20186;-63
2024/02/23 11:11:51;;;;;;;2.97;1.23;;;;;;;;;;5022921;28;20185;-63
2024/02/23 11:14:17;;;;;;;3.53;1.07;;;;;;;;;;5021710;28;20320;-63
2024/02/23 11:16:43;;;;;;;2.63;1.07;;;;;;;;;;5018182;28;20675;-63
2024/02/23 11:19:11;;;;;;;1.63;0.80;;;;;;;;;;5020943;28;20265;-63
2024/02/23 11:21:38;;;;;;;1.27;0.90;;;;;;;;;;5022102;28;20205;-63
2024/02/23 11:24:04;;;;;;;4.47;1.23;;;;;;;;;;5018865;28;20694;-63
2024/02/23 11:26:31;;;;;;;2.47;1.13;;;;;;;;;;5018718;28;20186;-63
2024/02/23 11:28:58;;;;;;;3.13;1.10;;;;;;;;;;5021196;28;20819;-62
2024/02/23 11:31:24;;;;;;;5.57;1.20;;;;;;;;;;5018236;28;20264;-63
2024/02/23 11:33:51;;;;;;;2.30;1.67;;;;;;;;;;5018404;28;20730;-63
2024/02/23 11:36:24;;;;;;;5.03;1.63;;;;;;;;;;5017796;28;20216;-63
2024/02/23 11:38:54;;;;;;;4.10;1.27;;;;;;;;;;5016097;28;20210;-63
2024/02/23 11:41:20;;;;;;;1.47;0.90;;;;;;;;;;5017033;28;20193;-63
2024/02/23 11:43:47;;;;;;;1.83;0.90;;;;;;;;;;5022880;28;20209;-63
2024/02/23 11:46:13;;;;;;;1.67;1.20;;;;;;;;;;5017791;28;20183;-63
2024/02/23 11:48:39;;;;;;;1.27;1.10;;;;;;;;;;5019210;28;20193;-63
2024/02/23 11:51:05;;;;;;;2.23;1.20;;;;;;;;;;5016763;28;20182;-64
2024/02/23 11:53:31;;;;;;;2.73;1.20;;;;;;;;;;5015690;28;20178;-63
2024/02/23 11:55:58;;;;;;;1.77;1.10;;;;;;;;;;5019337;28;20542;-63
2024/02/23 11:58:24;;;;;;;2.00;1.40;;;;;;;;;;5013157;28;20650;-63
2024/02/23 12:00:51;;;;;;;5.23;1.50;;;;;;;;;;5022065;28;20206;-64
2024/02/23 12:03:17;;;;;;;1.47;1.30;;;;;;;;;;5018264;28;20692;-63
2024/02/23 12:05:43;;;;;;;1.90;1.00;;;;;;;;;;5014212;28;20605;-63
2024/02/23 12:08:10;;;;;;;2.40;1.27;;;;;;;;;;5021643;28;20175;-63
2024/02/23 12:10:36;;;;;;;3.00;1.30;;;;;;;;;;5024676;28;20197;-62
2024/02/23 12:13:03;;;;;;;2.93;1.47;;;;;;;;;;5021308;28;20634;-63
2024/02/23 12:15:29;;;;;;;3.43;1.53;;;;;;;;;;5023764;28;20675;-63
2024/02/23 12:18:00;;;;;;;3.27;1.83;;;;;;;;;;5019030;28;20190;-63
2024/02/23 12:20:26;;;;;;;1.70;1.10;;;;;;;;;;5022301;28;20667;-63
2024/02/23 12:22:56;;;;;;;4.27;1.70;;;;;;;;;;5021131;28;20213;-64
2024/02/23 12:25:22;;;;;;;2.50;1.60;;;;;;;;;;5024017;28;20613;-63
2024/02/23 12:27:54;;;;;;;4.07;1.87;;;;;;;;;;5020464;28;20243;-63
2024/02/23 12:30:20;;;;;;;3.20;1.50;;;;;;;;;;5019408;28;20244;-63
2024/02/23 12:32:46;;;;;;;4.03;2.23;;;;;;;;;;5021273;28;20224;-63
2024/02/23 12:35:12;;;;;;;2.50;1.47;;;;;;;;;;5021353;28;20186;-64
2024/02/23 12:37:39;;;;;;;2.97;1.40;;;;;;;;;;5021437;28;20648;-62
2024/02/23 12:40:05;;;;;;;2.97;1.40;;;;;;;;;;5017647;28;20521;-63
2024/02/23 12:42:31;;;;;;;16.00;2.43;;;;;;;;;;5020849;28;20657;-62
2024/02/23 12:44:57;;;;;;;6.90;2.47;;;;;;;;;;5017890;28;20351;-62
2024/02/23 12:47:23;;;;;;;3.83;1.67;;;;;;;;;;5016758;28;20337;-62
2024/02/23 12:49:50;;;;;;;2.23;1.63;;;;;;;;;;5012566;28;20693;-62
2024/02/23 12:52:16;;;;;;;6.77;2.47;;;;;;;;;;5015859;28;20189;-61
2024/02/23 12:54:42;;;;;;;4.63;1.83;;;;;;;;;;5021953;28;20189;-61
2024/02/23 12:57:08;;;;;;;4.97;1.73;;;;;;;;;;5019935;28;20185;-60
2024/02/23 12:59:34;;;;;;;2.77;1.70;;;;;;;;;;5022696;28;20190;-62
2024/02/23 13:02:00;;;;;;;4.57;2.10;;;;;;;;;;5018027;28;20756;-63
2024/02/23 13:04:26;;;;;;;3.87;2.20;;;;;;;;;;5018839;28;20215;-63
2024/02/23 13:06:53;;;;;;;3.67;1.80;;;;;;;;;;5016044;28;20186;-62
2024/02/23 13:09:19;;;;;;;6.43;2.40;;;;;;;;;;5024559;28;20182;-63
2024/02/23 13:11:47;;;;;;;3.23;1.97;;;;;;;;;;5019698;28;20212;-63
2024/02/23 13:14:13;;;;;;;4.13;1.87;;;;;;;;;;5022377;28;20186;-62
2024/02/23 13:16:39;;;;;;;4.33;1.63;;;;;;;;;;5018637;28;20205;-63
2024/02/23 13:19:05;;;;;;;3.30;1.80;;;;;;;;;;5021766;28;20258;-63
2024/02/23 13:21:32;;;;;;;3.93;2.10;;;;;;;;;;5016594;28;20190;-57
2024/02/23 13:23:58;;;;;;;3.50;1.83;;;;;;;;;;5017751;28;20221;-56
2024/02/23 13:26:24;;;;;;;4.53;1.90;;;;;;;;;;5012766;28;20525;-58
2024/02/23 13:28:51;;;;;;;4.93;1.67;;;;;;;;;;5015909;28;20174;-57
2024/02/23 13:31:17;;;;;;;3.07;1.50;;;;;;;;;;5017717;28;20190;-57
2024/02/23 13:33:45;;;;;;;1.90;1.50;;;;;;;;;;5017930;28;20183;-57
2024/02/23 13:36:11;;;;;;;2.90;1.80;;;;;;;;;;5014181;28;20855;-57
2024/02/23 13:38:39;;;;;;;4.50;2.10;;;;;;;;;;5015047;28;20190;-57
2024/02/23 13:41:05;;;;;;;3.00;1.70;;;;;;;;;;5022608;28;20735;-57
2024/02/23 13:43:33;;;;;;;6.80;2.20;;;;;;;;;;5018360;28;20343;-58
2024/02/23 13:45:59;;;;;;;3.13;1.70;;;;;;;;;;5016404;28;20176;-56
2024/02/23 13:48:25;;;;;;;5.50;1.70;;;;;;;;;;5012547;28;20192;-56
2024/02/23 13:50:51;;;;;;;3.97;1.90;;;;;;;;;;5019722;28;20264;-56
2024/02/23 13:53:17;;;;;;;2.80;1.30;;;;;;;;;;5017240;28;20307;-57
2024/02/23 13:55:44;;;;;;;2.77;1.30;;;;;;;;;;5015836;28;20642;-61
2024/02/23 13:58:10;;;;;;;4.47;1.60;;;;;;;;;;5015823;28;20220;-56
2024/02/23 14:00:36;;;;;;;2.30;1.53;;;;;;;;;;5014725;28;20213;-57
2024/02/23 14:03:02;;;;;;;3.90;1.47;;;;;;;;;;5016400;28;20279;-56
2024/02/23 14:05:28;;;;;;;2.47;1.70;;;;;;;;;;5015299;28;20658;-57
2024/02/23 14:07:55;;;;;;;5.57;1.67;;;;;;;;;;5010122;28;20641;-56
2024/02/23 14:10:21;;;;;;;5.57;1.40;;;;;;;;;;5015458;28;20205;-56
2024/02/23 14:12:49;;;;;;;2.77;1.47;;;;;;;;;;5009602;28;20193;-57
2024/02/23 14:15:15;;;;;;;4.57;2.57;;;;;;;;;;5012448;28;20678;-57
2024/02/23 14:17:41;;;;;;;2.60;1.40;;;;;;;;;;5008699;28;20610;-56
2024/02/23 14:20:07;;;;;;;2.47;1.30;;;;;;;;;;5019972;28;20436;-58
2024/02/23 14:22:33;;;;;;;2.53;1.23;;;;;;;;;;5015960;28;20245;-57
2024/02/23 14:24:59;;;;;;;3.23;1.63;;;;;;;;;;5013497;28;20181;-56
2024/02/23 14:27:27;;;;;;;4.33;1.47;;;;;;;;;;5015381;28;20590;-56
2024/02/23 14:29:54;;;;;;;1.80;1.10;;;;;;;;;;5019015;28;20654;-56
2024/02/23 14:32:20;;;;;;;1.80;1.40;;;;;;;;;;5023244;28;20287;-63
2024/02/23 14:34:46;;;;;;;3.67;1.53;;;;;;;;;;5021040;28;20285;-63
2024/02/23 14:37:12;;;;;;;3.57;1.30;;;;;;;;;;5016223;28;20284;-63
2024/02/23 14:39:38;;;;;;;4.07;1.10;;;;;;;;;;5012337;28;20233;-61